LEAM Airport Information

Runway Information
Runway 08 Length 10499 ft width 148 ft
Elevation 26 ft Threshold 492 ft Heading 73
Runway 26 Length 10499 ft Width 148 ft
Elevation 70 ft Threshold 0 ft Heading 253
Airport Frequencies
Type APP Name APP Frequency 118.35 MHZ
Type GND Name GND Frequency 121.7 MHZ
Type TWR Name TWR Frequency 118.35 MHZ
Airport Navaids
Type NDB Name Almeria Frequency 284 KHZ
Type NDB Name Almeria Frequency 310 KHZ
Type VOR-DME Name Almeria Frequency 114100 KHZ
Airport Weather Information & NOTAM
ADDS - METARS form results

(0358 UTC 24 November 2020)
Data provider http://aviationweather.gov/metar/data/
 
METAR text: LEAM 240330Z AUTO 33009KT 9999 ////// 10/07 Q1025
Conditions at: LEAM (ALMERIA AIRPORT , ES) observed 0330 UTC 24 November 2020
Temperature: 10.0°C (50°F)
Dewpoint: 7.0°C (45°F) [RH = 82%]
Pressure (altimeter): 30.27 inches Hg (1025.0 mb)
Winds: from the NNW (330 degrees) at 10 MPH (9 knots; 4.6 m/s)
Visibility: 6 or more miles (10+ km)
Ceiling: unknown
Clouds: missing
Weather: no significant weather observed at this time

METAR text: LEAM 240300Z AUTO 34009KT 9999 ////// 11/07 Q1025
Conditions at: LEAM (ALMERIA AIRPORT , ES) observed 0300 UTC 24 November 2020
Temperature: 11.0°C (52°F)
Dewpoint: 7.0°C (45°F) [RH = 76%]
Pressure (altimeter): 30.27 inches Hg (1025.0 mb)
Winds: from the NNW (340 degrees) at 10 MPH (9 knots; 4.6 m/s)
Visibility: 6 or more miles (10+ km)
Ceiling: unknown
Clouds: missing
Weather: no significant weather observed at this time

Forecast for: LEAM (ALMERIA AIRPORT , ES)
Text: TAF LEAM 240200Z 2403/2503 35011KT 9999 FEW030 TX19/2412Z TN09/2406Z
Forecast period: 0300 to 1000 UTC 24 November 2020
Forecast type: FROM: standard forecast or significant change
Winds: from the N (350 degrees) at 13 MPH (11 knots; 5.7 m/s)
Visibility: 6 or more miles (10+ km)
Ceiling: at least 12,000 feet AGL
Clouds: few clouds at 3000 feet AGL
Weather: no significant weather forecast for this period
Text: BECMG 2410/2412 17005KT
Forecast period: 1000 to 1700 UTC 24 November 2020
Forecast type: BECOMING: Conditions expected to become as follows by 1200 UTC 24 November 2020
Winds: from the S (170 degrees) at 6 MPH (5 knots; 2.6 m/s)
Visibility: 6 or more miles (10+ km)
Ceiling: at least 12,000 feet AGL
Clouds: few clouds at 3000 feet AGL
Weather: no significant weather forecast for this period
Text: BECMG 2417/2420 35010KT
Forecast period: 1700 UTC 24 November 2020 to 0300 UTC 25 November 2020
Forecast type: BECOMING: Conditions expected to become as follows by 2000 UTC 24 November 2020
Winds: from the N (350 degrees) at 12 MPH (10 knots; 5.1 m/s)
Visibility: 6 or more miles (10+ km)
Ceiling: at least 12,000 feet AGL
Clouds: few clouds at 3000 feet AGL
Weather: no significant weather forecast for this period